sensor_id;sensor_type;location;lat;lon;timestamp;temperature;humidity
18690;DHT22;9782;52.930;15.562;2023-03-31T04:34:05;9.80;1.00
18690;DHT22;9782;52.930;15.562;2023-03-31T04:36:38;9.80;1.00
18690;DHT22;9782;52.930;15.562;2023-03-31T04:39:07;9.80;1.00
18690;DHT22;9782;52.930;15.562;2023-03-31T04:41:35;9.80;1.00
18690;DHT22;9782;52.930;15.562;2023-03-31T04:44:02;9.80;1.00
18690;DHT22;9782;52.930;15.562;2023-03-31T04:46:29;9.70;1.00
18690;DHT22;9782;52.930;15.562;2023-03-31T04:48:55;9.70;30.60
18690;DHT22;9782;52.930;15.562;2023-03-31T04:51:25;9.70;91.10
18690;DHT22;9782;52.930;15.562;2023-03-31T04:53:51;9.70;96.50
18690;DHT22;9782;52.930;15.562;2023-03-31T04:56:18;9.70;50.50
18690;DHT22;9782;52.930;15.562;2023-03-31T04:58:45;9.70;52.60
18690;DHT22;9782;52.930;15.562;2023-03-31T05:01:12;9.60;99.90
18690;DHT22;9782;52.930;15.562;2023-03-31T05:03:42;9.70;99.90
18690;DHT22;9782;52.930;15.562;2023-03-31T05:06:09;9.70;99.90
18690;DHT22;9782;52.930;15.562;2023-03-31T05:08:37;9.70;1.00
18690;DHT22;9782;52.930;15.562;2023-03-31T05:11:04;9.70;1.00
18690;DHT22;9782;52.930;15.562;2023-03-31T05:13:31;9.70;1.00
18690;DHT22;9782;52.930;15.562;2023-03-31T05:15:58;9.60;1.00
18690;DHT22;9782;52.930;15.562;2023-03-31T05:18:31;9.60;1.00
18690;DHT22;9782;52.930;15.562;2023-03-31T05:21:07;9.60;62.60
18690;DHT22;9782;52.930;15.562;2023-03-31T05:23:34;9.70;99.90
18690;DHT22;9782;52.930;15.562;2023-03-31T05:26:03;9.80;99.90
18690;DHT22;9782;52.930;15.562;2023-03-31T05:28:30;9.90;62.90
18690;DHT22;9782;52.930;15.562;2023-03-31T05:30:58;10.00;1.00
18690;DHT22;9782;52.930;15.562;2023-03-31T05:33:26;10.10;1.00
18690;DHT22;9782;52.930;15.562;2023-03-31T05:35:53;10.20;1.00
18690;DHT22;9782;52.930;15.562;2023-03-31T05:38:20;10.30;1.00
18690;DHT22;9782;52.930;15.562;2023-03-31T05:40:47;10.30;1.00
18690;DHT22;9782;52.930;15.562;2023-03-31T05:43:15;10.40;1.00
18690;DHT22;9782;52.930;15.562;2023-03-31T05:45:42;10.40;1.00
18690;DHT22;9782;52.930;15.562;2023-03-31T05:48:08;10.50;99.90
18690;DHT22;9782;52.930;15.562;2023-03-31T05:50:35;10.50;99.90
18690;DHT22;9782;52.930;15.562;2023-03-31T05:53:02;10.50;99.90
18690;DHT22;9782;52.930;15.562;2023-03-31T05:55:29;10.60;99.90
18690;DHT22;9782;52.930;15.562;2023-03-31T05:57:56;10.60;99.90
18690;DHT22;9782;52.930;15.562;2023-03-31T06:00:24;10.70;99.90
18690;DHT22;9782;52.930;15.562;2023-03-31T06:02:51;10.70;99.90
18690;DHT22;9782;52.930;15.562;2023-03-31T06:05:18;10.80;99.90
18690;DHT22;9782;52.930;15.562;2023-03-31T06:07:44;10.80;99.90
18690;DHT22;9782;52.930;15.562;2023-03-31T06:10:11;11.00;99.90
18690;DHT22;9782;52.930;15.562;2023-03-31T06:12:38;11.10;99.90
18690;DHT22;9782;52.930;15.562;2023-03-31T06:15:06;11.20;99.90
18690;DHT22;9782;52.930;15.562;2023-03-31T06:17:34;11.30;1.00
18690;DHT22;9782;52.930;15.562;2023-03-31T06:20:01;11.40;1.00
18690;DHT22;9782;52.930;15.562;2023-03-31T06:22:29;11.40;1.00
18690;DHT22;9782;52.930;15.562;2023-03-31T06:24:57;11.40;1.00
18690;DHT22;9782;52.930;15.562;2023-03-31T06:27:24;11.40;1.00
18690;DHT22;9782;52.930;15.562;2023-03-31T06:29:50;11.50;1.00
18690;DHT22;9782;52.930;15.562;2023-03-31T06:32:17;11.60;1.00
18690;DHT22;9782;52.930;15.562;2023-03-31T06:34:45;11.60;1.00
18690;DHT22;9782;52.930;15.562;2023-03-31T06:37:12;11.70;1.00
18690;DHT22;9782;52.930;15.562;2023-03-31T06:39:39;11.80;1.00
18690;DHT22;9782;52.930;15.562;2023-03-31T06:42:05;12.00;1.00
18690;DHT22;9782;52.930;15.562;2023-03-31T06:44:32;12.20;1.00
18690;DHT22;9782;52.930;15.562;2023-03-31T06:46:59;12.40;1.00
18690;DHT22;9782;52.930;15.562;2023-03-31T06:49:26;12.70;1.00
18690;DHT22;9782;52.930;15.562;2023-03-31T06:51:54;12.90;99.90
18690;DHT22;9782;52.930;15.562;2023-03-31T06:54:21;13.10;99.90
18690;DHT22;9782;52.930;15.562;2023-03-31T06:56:47;13.20;59.90
18690;DHT22;9782;52.930;15.562;2023-03-31T06:59:14;13.20;1.00
18690;DHT22;9782;52.930;15.562;2023-03-31T07:01:41;13.10;1.00
18690;DHT22;9782;52.930;15.562;2023-03-31T07:04:10;13.00;1.00
18690;DHT22;9782;52.930;15.562;2023-03-31T07:06:37;13.00;1.00
18690;DHT22;9782;52.930;15.562;2023-03-31T07:09:05;13.10;1.00
18690;DHT22;9782;52.930;15.562;2023-03-31T07:11:32;13.10;1.00
18690;DHT22;9782;52.930;15.562;2023-03-31T07:13:58;13.10;99.90
18690;DHT22;9782;52.930;15.562;2023-03-31T07:16:25;13.00;99.90
18690;DHT22;9782;52.930;15.562;2023-03-31T07:18:52;12.90;99.90
18690;DHT22;9782;52.930;15.562;2023-03-31T07:21:24;12.90;99.90
18690;DHT22;9782;52.930;15.562;2023-03-31T07:23:50;13.00;99.90
18690;DHT22;9782;52.930;15.562;2023-03-31T07:26:19;13.10;99.90
18690;DHT22;9782;52.930;15.562;2023-03-31T07:28:46;13.20;99.90
18690;DHT22;9782;52.930;15.562;2023-03-31T07:31:13;13.30;99.90
18690;DHT22;9782;52.930;15.562;2023-03-31T07:33:40;13.50;99.90
18690;DHT22;9782;52.930;15.562;2023-03-31T07:36:08;13.60;1.00
18690;DHT22;9782;52.930;15.562;2023-03-31T07:38:35;13.80;1.00
18690;DHT22;9782;52.930;15.562;2023-03-31T07:41:02;14.00;1.00
18690;DHT22;9782;52.930;15.562;2023-03-31T07:43:30;14.10;99.90
18690;DHT22;9782;52.930;15.562;2023-03-31T07:45:56;14.20;99.90
18690;DHT22;9782;52.930;15.562;2023-03-31T07:48:23;14.30;99.90
18690;DHT22;9782;52.930;15.562;2023-03-31T07:50:53;14.50;1.00
18690;DHT22;9782;52.930;15.562;2023-03-31T07:53:20;14.40;1.00
18690;DHT22;9782;52.930;15.562;2023-03-31T07:55:47;14.40;1.00
18690;DHT22;9782;52.930;15.562;2023-03-31T07:58:13;14.40;99.90
18690;DHT22;9782;52.930;15.562;2023-03-31T08:00:42;14.30;99.90
18690;DHT22;9782;52.930;15.562;2023-03-31T08:03:09;14.30;99.90
18690;DHT22;9782;52.930;15.562;2023-03-31T08:05:35;14.40;99.90
18690;DHT22;9782;52.930;15.562;2023-03-31T08:08:02;14.50;99.90
18690;DHT22;9782;52.930;15.562;2023-03-31T08:10:29;14.60;1.00
18690;DHT22;9782;52.930;15.562;2023-03-31T08:12:56;14.70;1.00
18690;DHT22;9782;52.930;15.562;2023-03-31T08:15:23;14.70;1.00
18690;DHT22;9782;52.930;15.562;2023-03-31T08:17:51;14.80;1.00
18690;DHT22;9782;52.930;15.562;2023-03-31T08:20:18;14.80;1.00
18690;DHT22;9782;52.930;15.562;2023-03-31T08:22:45;14.90;1.00
18690;DHT22;9782;52.930;15.562;2023-03-31T08:25:12;15.00;1.00
18690;DHT22;9782;52.930;15.562;2023-03-31T08:27:39;15.20;99.90
18690;DHT22;9782;52.930;15.562;2023-03-31T08:30:08;15.40;99.90
18690;DHT22;9782;52.930;15.562;2023-03-31T08:32:36;15.60;1.00
18690;DHT22;9782;52.930;15.562;2023-03-31T08:35:05;15.60;1.00
18690;DHT22;9782;52.930;15.562;2023-03-31T08:37:33;15.70;1.00
18690;DHT22;9782;52.930;15.562;2023-03-31T08:40:00;15.80;1.00
18690;DHT22;9782;52.930;15.562;2023-03-31T08:42:35;15.90;99.90
18690;DHT22;9782;52.930;15.562;2023-03-31T08:45:08;15.80;99.90
18690;DHT22;9782;52.930;15.562;2023-03-31T08:47:37;15.90;99.90
18690;DHT22;9782;52.930;15.562;2023-03-31T08:50:11;16.00;99.90
18690;DHT22;9782;52.930;15.562;2023-03-31T08:52:41;15.90;99.90
18690;DHT22;9782;52.930;15.562;2023-03-31T08:55:15;15.80;99.90
18690;DHT22;9782;52.930;15.562;2023-03-31T08:57:51;15.70;99.90
18690;DHT22;9782;52.930;15.562;2023-03-31T09:00:21;15.60;99.90
18690;DHT22;9782;52.930;15.562;2023-03-31T09:02:50;15.60;1.00
18690;DHT22;9782;52.930;15.562;2023-03-31T09:08:12;15.70;99.90
18690;DHT22;9782;52.930;15.562;2023-03-31T09:10:49;15.70;99.90
18690;DHT22;9782;52.930;15.562;2023-03-31T09:13:34;15.70;1.00
18690;DHT22;9782;52.930;15.562;2023-03-31T09:16:09;15.80;99.90
18690;DHT22;9782;52.930;15.562;2023-03-31T09:18:38;16.00;1.00
18690;DHT22;9782;52.930;15.562;2023-03-31T09:21:16;16.20;1.00
18690;DHT22;9782;52.930;15.562;2023-03-31T09:23:46;16.40;1.00
18690;DHT22;9782;52.930;15.562;2023-03-31T09:26:22;16.60;1.00
18690;DHT22;9782;52.930;15.562;2023-03-31T09:28:53;16.70;1.00
18690;DHT22;9782;52.930;15.562;2023-03-31T09:31:23;16.90;1.00
18690;DHT22;9782;52.930;15.562;2023-03-31T09:33:53;17.00;1.00
18690;DHT22;9782;52.930;15.562;2023-03-31T09:36:24;17.10;1.00
18690;DHT22;9782;52.930;15.562;2023-03-31T09:38:51;17.30;99.90
18690;DHT22;9782;52.930;15.562;2023-03-31T09:41:18;17.30;99.90
18690;DHT22;9782;52.930;15.562;2023-03-31T09:43:46;17.40;99.90
18690;DHT22;9782;52.930;15.562;2023-03-31T09:46:16;17.50;99.90
18690;DHT22;9782;52.930;15.562;2023-03-31T09:48:51;17.60;99.90
18690;DHT22;9782;52.930;15.562;2023-03-31T09:51:26;17.80;99.90
18690;DHT22;9782;52.930;15.562;2023-03-31T09:53:59;17.90;99.90
18690;DHT22;9782;52.930;15.562;2023-03-31T09:56:44;18.00;99.90
18690;DHT22;9782;52.930;15.562;2023-03-31T09:59:14;17.90;99.90
18690;DHT22;9782;52.930;15.562;2023-03-31T10:01:43;17.60;99.90
18690;DHT22;9782;52.930;15.562;2023-03-31T10:04:17;17.40;99.90
18690;DHT22;9782;52.930;15.562;2023-03-31T10:06:47;17.10;99.90
18690;DHT22;9782;52.930;15.562;2023-03-31T10:09:15;17.00;99.90
18690;DHT22;9782;52.930;15.562;2023-03-31T10:11:55;17.00;99.90
18690;DHT22;9782;52.930;15.562;2023-03-31T10:14:32;17.20;99.90
18690;DHT22;9782;52.930;15.562;2023-03-31T10:17:03;17.40;99.90
18690;DHT22;9782;52.930;15.562;2023-03-31T10:19:32;17.60;99.90
18690;DHT22;9782;52.930;15.562;2023-03-31T10:22:01;17.70;99.90
18690;DHT22;9782;52.930;15.562;2023-03-31T10:24:36;17.80;99.90
18690;DHT22;9782;52.930;15.562;2023-03-31T10:27:05;17.90;99.90
18690;DHT22;9782;52.930;15.562;2023-03-31T10:29:33;18.20;99.90
18690;DHT22;9782;52.930;15.562;2023-03-31T10:32:04;18.30;99.90
18690;DHT22;9782;52.930;15.562;2023-03-31T10:34:39;18.40;99.90
18690;DHT22;9782;52.930;15.562;2023-03-31T10:39:38;18.50;99.90
18690;DHT22;9782;52.930;15.562;2023-03-31T10:42:06;18.60;99.90
18690;DHT22;9782;52.930;15.562;2023-03-31T10:44:34;18.80;99.90
18690;DHT22;9782;52.930;15.562;2023-03-31T10:47:05;19.10;99.90
18690;DHT22;9782;52.930;15.562;2023-03-31T10:49:37;19.20;99.90
18690;DHT22;9782;52.930;15.562;2023-03-31T10:52:15;19.20;99.90
18690;DHT22;9782;52.930;15.562;2023-03-31T10:54:47;19.00;99.90
18690;DHT22;9782;52.930;15.562;2023-03-31T10:57:15;18.90;99.90
18690;DHT22;9782;52.930;15.562;2023-03-31T10:59:58;19.00;99.90
18690;DHT22;9782;52.930;15.562;2023-03-31T11:05:30;19.10;99.90
18690;DHT22;9782;52.930;15.562;2023-03-31T11:08:10;19.30;99.90
18690;DHT22;9782;52.930;15.562;2023-03-31T11:10:59;19.50;99.90
18690;DHT22;9782;52.930;15.562;2023-03-31T11:13:32;19.70;99.90
18690;DHT22;9782;52.930;15.562;2023-03-31T11:16:06;19.70;99.90
18690;DHT22;9782;52.930;15.562;2023-03-31T11:18:50;19.90;99.90
18690;DHT22;9782;52.930;15.562;2023-03-31T11:21:23;20.20;99.90
18690;DHT22;9782;52.930;15.562;2023-03-31T11:24:00;20.60;99.90
18690;DHT22;9782;52.930;15.562;2023-03-31T11:26:38;21.00;99.90
18690;DHT22;9782;52.930;15.562;2023-03-31T11:29:19;21.20;99.90
18690;DHT22;9782;52.930;15.562;2023-03-31T11:31:51;21.30;99.90
18690;DHT22;9782;52.930;15.562;2023-03-31T11:34:40;21.20;99.90
18690;DHT22;9782;52.930;15.562;2023-03-31T11:37:25;21.00;99.90
18690;DHT22;9782;52.930;15.562;2023-03-31T11:40:15;20.70;96.80
18690;DHT22;9782;52.930;15.562;2023-03-31T11:42:48;20.30;96.40
18690;DHT22;9782;52.930;15.562;2023-03-31T11:45:18;20.00;96.20
18690;DHT22;9782;52.930;15.562;2023-03-31T11:47:48;19.90;98.70
18690;DHT22;9782;52.930;15.562;2023-03-31T11:50:20;19.70;97.90
18690;DHT22;9782;52.930;15.562;2023-03-31T11:52:55;19.40;99.20
18690;DHT22;9782;52.930;15.562;2023-03-31T11:55:26;19.10;99.90
18690;DHT22;9782;52.930;15.562;2023-03-31T11:58:00;18.90;99.90
18690;DHT22;9782;52.930;15.562;2023-03-31T12:00:29;18.80;99.90
18690;DHT22;9782;52.930;15.562;2023-03-31T12:03:03;18.80;99.90
18690;DHT22;9782;52.930;15.562;2023-03-31T12:05:33;18.60;99.90
18690;DHT22;9782;52.930;15.562;2023-03-31T12:08:06;18.40;99.90
18690;DHT22;9782;52.930;15.562;2023-03-31T12:10:35;18.10;99.90
18690;DHT22;9782;52.930;15.562;2023-03-31T12:13:14;17.70;99.90
18690;DHT22;9782;52.930;15.562;2023-03-31T12:15:47;17.30;99.90
18690;DHT22;9782;52.930;15.562;2023-03-31T12:18:20;17.00;99.90
18690;DHT22;9782;52.930;15.562;2023-03-31T12:20:50;16.80;99.90
18690;DHT22;9782;52.930;15.562;2023-03-31T12:23:21;16.60;99.90
18690;DHT22;9782;52.930;15.562;2023-03-31T12:25:53;16.40;99.90
18690;DHT22;9782;52.930;15.562;2023-03-31T12:28:22;16.40;99.90
18690;DHT22;9782;52.930;15.562;2023-03-31T12:30:51;16.50;99.90
18690;DHT22;9782;52.930;15.562;2023-03-31T12:33:23;16.60;99.90
18690;DHT22;9782;52.930;15.562;2023-03-31T12:36:03;16.70;99.90
18690;DHT22;9782;52.930;15.562;2023-03-31T12:38:50;16.80;99.90
18690;DHT22;9782;52.930;15.562;2023-03-31T12:41:25;17.00;99.90
18690;DHT22;9782;52.930;15.562;2023-03-31T12:44:09;17.10;99.90
18690;DHT22;9782;52.930;15.562;2023-03-31T12:49:51;17.50;99.90
18690;DHT22;9782;52.930;15.562;2023-03-31T12:52:23;17.80;99.90
18690;DHT22;9782;52.930;15.562;2023-03-31T13:01:04;18.00;99.90
18690;DHT22;9782;52.930;15.562;2023-03-31T13:03:39;18.10;99.90
18690;DHT22;9782;52.930;15.562;2023-03-31T13:06:09;18.20;99.90
18690;DHT22;9782;52.930;15.562;2023-03-31T13:08:50;18.30;99.90
18690;DHT22;9782;52.930;15.562;2023-03-31T13:11:19;18.20;99.90
18690;DHT22;9782;52.930;15.562;2023-03-31T13:13:57;18.10;99.90
18690;DHT22;9782;52.930;15.562;2023-03-31T13:16:26;18.10;99.90
18690;DHT22;9782;52.930;15.562;2023-03-31T13:18:53;17.90;99.90
18690;DHT22;9782;52.930;15.562;2023-03-31T13:21:21;17.90;99.90
18690;DHT22;9782;52.930;15.562;2023-03-31T13:23:48;17.70;99.90
18690;DHT22;9782;52.930;15.562;2023-03-31T13:26:39;17.50;99.90
18690;DHT22;9782;52.930;15.562;2023-03-31T13:29:21;17.30;99.90
18690;DHT22;9782;52.930;15.562;2023-03-31T13:32:18;17.20;99.90
18690;DHT22;9782;52.930;15.562;2023-03-31T13:34:53;17.20;99.90
18690;DHT22;9782;52.930;15.562;2023-03-31T13:37:45;17.20;99.90
18690;DHT22;9782;52.930;15.562;2023-03-31T13:40:36;17.10;99.90
18690;DHT22;9782;52.930;15.562;2023-03-31T13:46:41;16.80;99.90
18690;DHT22;9782;52.930;15.562;2023-03-31T13:52:09;16.40;99.90
18690;DHT22;9782;52.930;15.562;2023-03-31T13:57:58;16.10;1.00
18690;DHT22;9782;52.930;15.562;2023-03-31T14:00:36;15.90;1.00
18690;DHT22;9782;52.930;15.562;2023-03-31T14:03:34;15.80;1.00
18690;DHT22;9782;52.930;15.562;2023-03-31T14:06:07;15.60;1.00
18690;DHT22;9782;52.930;15.562;2023-03-31T14:08:45;15.50;1.00
18690;DHT22;9782;52.930;15.562;2023-03-31T14:11:19;15.30;1.00
18690;DHT22;9782;52.930;15.562;2023-03-31T14:13:58;15.10;1.00
18690;DHT22;9782;52.930;15.562;2023-03-31T14:16:25;15.00;14.30
18690;DHT22;9782;52.930;15.562;2023-03-31T14:19:01;14.80;99.90
18690;DHT22;9782;52.930;15.562;2023-03-31T14:21:36;14.60;99.90
18690;DHT22;9782;52.930;15.562;2023-03-31T14:24:13;14.50;1.00
18690;DHT22;9782;52.930;15.562;2023-03-31T14:26:50;14.40;1.00
18690;DHT22;9782;52.930;15.562;2023-03-31T14:29:22;14.30;1.00
18690;DHT22;9782;52.930;15.562;2023-03-31T14:31:56;14.20;64.20
18690;DHT22;9782;52.930;15.562;2023-03-31T14:34:38;14.10;99.90
18690;DHT22;9782;52.930;15.562;2023-03-31T14:37:11;14.00;99.90
18690;DHT22;9782;52.930;15.562;2023-03-31T14:39:42;14.00;1.00
18690;DHT22;9782;52.930;15.562;2023-03-31T14:42:12;14.00;1.00
18690;DHT22;9782;52.930;15.562;2023-03-31T14:44:39;14.10;1.00
18690;DHT22;9782;52.930;15.562;2023-03-31T14:47:13;14.10;1.00
18690;DHT22;9782;52.930;15.562;2023-03-31T14:49:40;14.20;1.00
18690;DHT22;9782;52.930;15.562;2023-03-31T14:52:14;14.30;1.00
18690;DHT22;9782;52.930;15.562;2023-03-31T14:54:43;14.40;1.00
18690;DHT22;9782;52.930;15.562;2023-03-31T14:57:13;14.60;1.00
18690;DHT22;9782;52.930;15.562;2023-03-31T14:59:41;14.80;1.00
18690;DHT22;9782;52.930;15.562;2023-03-31T15:02:13;14.90;99.90
18690;DHT22;9782;52.930;15.562;2023-03-31T15:04:41;15.00;99.90
18690;DHT22;9782;52.930;15.562;2023-03-31T15:07:14;15.10;1.00
18690;DHT22;9782;52.930;15.562;2023-03-31T15:09:47;15.00;1.00
18690;DHT22;9782;52.930;15.562;2023-03-31T15:12:17;15.00;1.00
18690;DHT22;9782;52.930;15.562;2023-03-31T15:14:47;14.90;1.00
18690;DHT22;9782;52.930;15.562;2023-03-31T15:17:20;14.80;1.00
18690;DHT22;9782;52.930;15.562;2023-03-31T15:19:53;14.60;99.90
18690;DHT22;9782;52.930;15.562;2023-03-31T15:22:23;14.30;99.90
18690;DHT22;9782;52.930;15.562;2023-03-31T15:24:51;14.00;1.00
18690;DHT22;9782;52.930;15.562;2023-03-31T15:27:25;13.60;1.00
18690;DHT22;9782;52.930;15.562;2023-03-31T15:29:57;13.30;66.00
18690;DHT22;9782;52.930;15.562;2023-03-31T15:32:27;13.00;99.90
18690;DHT22;9782;52.930;15.562;2023-03-31T15:34:54;12.80;1.00
18690;DHT22;9782;52.930;15.562;2023-03-31T15:37:24;12.70;1.00
18690;DHT22;9782;52.930;15.562;2023-03-31T15:39:54;12.60;99.90
18690;DHT22;9782;52.930;15.562;2023-03-31T15:42:22;12.50;1.00
18690;DHT22;9782;52.930;15.562;2023-03-31T15:44:53;12.50;1.00
18690;DHT22;9782;52.930;15.562;2023-03-31T15:47:22;12.40;1.00
18690;DHT22;9782;52.930;15.562;2023-03-31T15:49:53;12.40;29.10
18690;DHT22;9782;52.930;15.562;2023-03-31T15:52:30;12.50;99.90
18690;DHT22;9782;52.930;15.562;2023-03-31T15:54:59;12.50;99.90
18690;DHT22;9782;52.930;15.562;2023-03-31T15:57:34;12.60;99.90
18690;DHT22;9782;52.930;15.562;2023-03-31T16:00:02;12.50;99.90
18690;DHT22;9782;52.930;15.562;2023-03-31T16:02:38;12.60;99.90
18690;DHT22;9782;52.930;15.562;2023-03-31T16:05:15;12.60;1.00
18690;DHT22;9782;52.930;15.562;2023-03-31T16:07:48;12.60;1.00
18690;DHT22;9782;52.930;15.562;2023-03-31T16:10:18;12.60;1.00
18690;DHT22;9782;52.930;15.562;2023-03-31T16:12:50;12.60;1.00
18690;DHT22;9782;52.930;15.562;2023-03-31T16:15:20;12.50;1.00
18690;DHT22;9782;52.930;15.562;2023-03-31T16:17:50;12.50;1.00
18690;DHT22;9782;52.930;15.562;2023-03-31T16:20:20;12.50;19.80
18690;DHT22;9782;52.930;15.562;2023-03-31T16:22:52;12.50;87.20
18690;DHT22;9782;52.930;15.562;2023-03-31T16:25:21;12.50;39.60
18690;DHT22;9782;52.930;15.562;2023-03-31T16:27:51;12.40;86.70
18690;DHT22;9782;52.930;15.562;2023-03-31T16:30:31;12.40;99.90
18690;DHT22;9782;52.930;15.562;2023-03-31T16:33:00;12.40;99.90
18690;DHT22;9782;52.930;15.562;2023-03-31T16:35:32;12.40;99.90
18690;DHT22;9782;52.930;15.562;2023-03-31T16:38:00;12.40;99.90
18690;DHT22;9782;52.930;15.562;2023-03-31T16:40:28;12.40;66.50
18690;DHT22;9782;52.930;15.562;2023-03-31T16:43:12;12.40;99.90
18690;DHT22;9782;52.930;15.562;2023-03-31T16:45:40;12.40;99.90
18690;DHT22;9782;52.930;15.562;2023-03-31T16:48:08;12.40;99.90
18690;DHT22;9782;52.930;15.562;2023-03-31T16:50:35;12.40;99.90
18690;DHT22;9782;52.930;15.562;2023-03-31T16:53:04;12.40;1.00
18690;DHT22;9782;52.930;15.562;2023-03-31T16:55:30;12.30;53.30
18690;DHT22;9782;52.930;15.562;2023-03-31T16:57:58;12.30;1.00
18690;DHT22;9782;52.930;15.562;2023-03-31T17:00:30;12.30;77.20
18690;DHT22;9782;52.930;15.562;2023-03-31T17:02:59;12.20;91.50
18690;DHT22;9782;52.930;15.562;2023-03-31T17:05:27;12.20;75.60
18690;DHT22;9782;52.930;15.562;2023-03-31T17:07:55;12.20;99.90
18690;DHT22;9782;52.930;15.562;2023-03-31T17:10:24;12.20;99.90
18690;DHT22;9782;52.930;15.562;2023-03-31T17:12:51;12.10;99.90
18690;DHT22;9782;52.930;15.562;2023-03-31T17:15:18;12.10;99.90
18690;DHT22;9782;52.930;15.562;2023-03-31T17:17:45;12.10;99.90
18690;DHT22;9782;52.930;15.562;2023-03-31T17:20:12;12.00;99.90
18690;DHT22;9782;52.930;15.562;2023-03-31T17:22:39;12.00;99.90
18690;DHT22;9782;52.930;15.562;2023-03-31T17:25:06;12.00;1.00
18690;DHT22;9782;52.930;15.562;2023-03-31T17:27:35;12.00;1.00
18690;DHT22;9782;52.930;15.562;2023-03-31T17:30:02;12.00;1.00
18690;DHT22;9782;52.930;15.562;2023-03-31T17:32:30;12.00;1.00
18690;DHT22;9782;52.930;15.562;2023-03-31T17:34:57;12.00;1.00
18690;DHT22;9782;52.930;15.562;2023-03-31T17:37:24;12.00;1.00
18690;DHT22;9782;52.930;15.562;2023-03-31T17:39:51;12.00;1.00
18690;DHT22;9782;52.930;15.562;2023-03-31T17:42:18;12.00;1.00
18690;DHT22;9782;52.930;15.562;2023-03-31T17:44:46;12.10;1.00
18690;DHT22;9782;52.930;15.562;2023-03-31T17:47:16;12.10;1.00
18690;DHT22;9782;52.930;15.562;2023-03-31T17:49:43;12.10;1.00
18690;DHT22;9782;52.930;15.562;2023-03-31T17:52:10;12.10;1.00
18690;DHT22;9782;52.930;15.562;2023-03-31T17:54:37;12.10;1.00
18690;DHT22;9782;52.930;15.562;2023-03-31T17:57:04;12.10;1.00
18690;DHT22;9782;52.930;15.562;2023-03-31T17:59:31;12.10;1.00
18690;DHT22;9782;52.930;15.562;2023-03-31T18:01:59;12.10;1.00
18690;DHT22;9782;52.930;15.562;2023-03-31T18:04:26;12.10;1.00
18690;DHT22;9782;52.930;15.562;2023-03-31T18:06:53;12.10;1.00
18690;DHT22;9782;52.930;15.562;2023-03-31T18:09:21;12.10;1.00
18690;DHT22;9782;52.930;15.562;2023-03-31T18:11:49;12.10;1.00
18690;DHT22;9782;52.930;15.562;2023-03-31T18:14:16;12.10;1.00
18690;DHT22;9782;52.930;15.562;2023-03-31T18:16:43;12.20;1.00
18690;DHT22;9782;52.930;15.562;2023-03-31T18:19:11;12.10;1.00
18690;DHT22;9782;52.930;15.562;2023-03-31T18:21:38;12.20;1.00
18690;DHT22;9782;52.930;15.562;2023-03-31T18:24:05;12.20;1.00
18690;DHT22;9782;52.930;15.562;2023-03-31T18:26:32;12.20;1.00
18690;DHT22;9782;52.930;15.562;2023-03-31T18:29:00;12.20;99.90
18690;DHT22;9782;52.930;15.562;2023-03-31T18:31:26;12.20;99.90
18690;DHT22;9782;52.930;15.562;2023-03-31T18:33:53;12.20;99.90
18690;DHT22;9782;52.930;15.562;2023-03-31T18:36:22;12.30;99.90
18690;DHT22;9782;52.930;15.562;2023-03-31T18:38:49;12.30;99.90
18690;DHT22;9782;52.930;15.562;2023-03-31T18:41:17;12.30;99.90
18690;DHT22;9782;52.930;15.562;2023-03-31T18:43:45;12.20;99.90
18690;DHT22;9782;52.930;15.562;2023-03-31T18:46:15;12.10;1.00
18690;DHT22;9782;52.930;15.562;2023-03-31T18:48:42;12.10;1.00
18690;DHT22;9782;52.930;15.562;2023-03-31T18:51:09;12.00;1.00
18690;DHT22;9782;52.930;15.562;2023-03-31T18:53:37;12.00;1.00
18690;DHT22;9782;52.930;15.562;2023-03-31T18:56:04;12.00;1.00
18690;DHT22;9782;52.930;15.562;2023-03-31T18:58:31;12.00;1.00
18690;DHT22;9782;52.930;15.562;2023-03-31T19:00:58;11.90;1.00
18690;DHT22;9782;52.930;15.562;2023-03-31T19:03:26;11.80;1.00
18690;DHT22;9782;52.930;15.562;2023-03-31T19:05:59;11.80;1.00
18690;DHT22;9782;52.930;15.562;2023-03-31T19:08:28;11.80;2.80
18690;DHT22;9782;52.930;15.562;2023-03-31T19:11:04;11.80;1.00
18690;DHT22;9782;52.930;15.562;2023-03-31T19:13:31;11.70;73.10
18690;DHT22;9782;52.930;15.562;2023-03-31T19:15:58;11.70;38.20
18690;DHT22;9782;52.930;15.562;2023-03-31T19:18:26;11.70;99.90
18690;DHT22;9782;52.930;15.562;2023-03-31T19:20:53;11.70;99.90
18690;DHT22;9782;52.930;15.562;2023-03-31T19:23:20;11.60;99.90
18690;DHT22;9782;52.930;15.562;2023-03-31T19:25:50;11.60;99.90
18690;DHT22;9782;52.930;15.562;2023-03-31T19:28:20;11.60;99.90
18690;DHT22;9782;52.930;15.562;2023-03-31T19:30:47;11.50;99.90
18690;DHT22;9782;52.930;15.562;2023-03-31T19:33:15;11.50;99.90
18690;DHT22;9782;52.930;15.562;2023-03-31T19:35:42;11.40;99.90
18690;DHT22;9782;52.930;15.562;2023-03-31T19:38:10;11.40;99.90
18690;DHT22;9782;52.930;15.562;2023-03-31T19:40:38;11.40;1.00
18690;DHT22;9782;52.930;15.562;2023-03-31T19:43:05;11.30;1.00
18690;DHT22;9782;52.930;15.562;2023-03-31T19:45:36;11.30;1.00
18690;DHT22;9782;52.930;15.562;2023-03-31T19:48:03;11.20;1.00
18690;DHT22;9782;52.930;15.562;2023-03-31T19:50:30;11.20;1.00
18690;DHT22;9782;52.930;15.562;2023-03-31T19:52:57;11.30;1.00
18690;DHT22;9782;52.930;15.562;2023-03-31T19:55:24;11.20;1.00
18690;DHT22;9782;52.930;15.562;2023-03-31T19:57:51;11.20;1.00
18690;DHT22;9782;52.930;15.562;2023-03-31T20:00:19;11.20;1.00
18690;DHT22;9782;52.930;15.562;2023-03-31T20:02:47;11.20;1.00
18690;DHT22;9782;52.930;15.562;2023-03-31T20:05:14;11.20;1.00
18690;DHT22;9782;52.930;15.562;2023-03-31T20:07:41;11.10;1.00
18690;DHT22;9782;52.930;15.562;2023-03-31T20:10:08;11.10;1.00
18690;DHT22;9782;52.930;15.562;2023-03-31T20:12:38;11.10;1.00
18690;DHT22;9782;52.930;15.562;2023-03-31T20:15:06;11.10;1.00
18690;DHT22;9782;52.930;15.562;2023-03-31T20:17:33;11.10;1.00
18690;DHT22;9782;52.930;15.562;2023-03-31T20:20:01;11.10;1.00
18690;DHT22;9782;52.930;15.562;2023-03-31T20:22:28;11.10;1.00
18690;DHT22;9782;52.930;15.562;2023-03-31T20:24:55;11.10;1.00
18690;DHT22;9782;52.930;15.562;2023-03-31T20:27:22;11.10;1.00
18690;DHT22;9782;52.930;15.562;2023-03-31T20:29:51;11.10;1.00
18690;DHT22;9782;52.930;15.562;2023-03-31T20:32:17;11.10;1.00
18690;DHT22;9782;52.930;15.562;2023-03-31T20:34:44;11.10;1.00
18690;DHT22;9782;52.930;15.562;2023-03-31T20:37:12;11.10;1.00
18690;DHT22;9782;52.930;15.562;2023-03-31T20:39:39;11.00;34.70
18690;DHT22;9782;52.930;15.562;2023-03-31T20:42:06;11.00;38.50
18690;DHT22;9782;52.930;15.562;2023-03-31T20:44:33;11.10;64.80
18690;DHT22;9782;52.930;15.562;2023-03-31T20:47:00;11.00;99.90
18690;DHT22;9782;52.930;15.562;2023-03-31T20:49:28;11.00;93.20
18690;DHT22;9782;52.930;15.562;2023-03-31T20:51:55;11.00;92.00
18690;DHT22;9782;52.930;15.562;2023-03-31T20:54:23;11.00;97.30
18690;DHT22;9782;52.930;15.562;2023-03-31T20:56:50;11.00;99.90